Time;durP1;ratioP1;P1;durP2;ratioP2;P2;SDS_P1;SDS_P2;PMS_P1;PMS_P2;Temp;Humidity;BMP_temperature;BMP_pressure;BME280_temperature;BME280_humidity;BME280_pressure;Samples;Min_cycle;Max_cycle;Signal;HPM_P1;HPM_P2
2022/05/30 00:00:50;;;;;;;4.90;4.50;;;5.60;99.90;;;;;;5025839;28;20112;-91
2022/05/30 00:03:17;;;;;;;6.80;6.07;;;5.60;99.90;;;;;;5030895;28;20418;-91
2022/05/30 00:05:49;;;;;;;6.78;6.10;;;5.60;99.90;;;;;;5011074;28;20025;-92
2022/05/30 00:08:17;;;;;;;6.38;5.78;;;5.60;99.90;;;;;;5010339;28;20018;-90
2022/05/30 00:10:43;;;;;;;8.43;7.18;;;5.50;99.90;;;;;;5001551;28;20033;-92
2022/05/30 00:13:10;;;;;;;8.52;7.10;;;5.60;99.90;;;;;;5008499;28;20018;-92
2022/05/30 00:15:36;;;;;;;7.47;6.78;;;5.50;99.90;;;;;;4998544;28;20142;-92
2022/05/30 00:18:03;;;;;;;8.52;6.07;;;5.60;99.90;;;;;;5010274;28;20033;-92
2022/05/30 00:20:29;;;;;;;5.85;5.25;;;5.50;99.90;;;;;;5029413;28;20033;-91
2022/05/30 00:22:54;;;;;;;10.88;6.07;;;5.50;99.90;;;;;;5022276;28;20025;-92
2022/05/30 00:25:20;;;;;;;7.30;6.22;;;5.50;99.90;;;;;;5001237;28;20105;-91
2022/05/30 00:27:46;;;;;;;7.93;6.20;;;5.50;99.90;;;;;;5010901;28;20041;-91
2022/05/30 00:30:14;;;;;;;8.45;7.70;;;5.40;99.90;;;;;;5029323;28;20425;-92
2022/05/30 00:32:40;;;;;;;6.75;6.15;;;5.40;99.90;;;;;;5026900;28;20025;-93
2022/05/30 00:35:10;;;;;;;9.25;6.72;;;5.40;99.90;;;;;;5023123;28;20501;-93
2022/05/30 00:37:35;;;;;;;6.45;5.85;;;5.40;99.90;;;;;;5007760;28;20120;-92
2022/05/30 00:40:01;;;;;;;7.20;6.03;;;5.30;99.90;;;;;;5009398;28;20049;-93
2022/05/30 00:42:27;;;;;;;7.70;7.03;;;5.30;99.90;;;;;;5011174;28;20026;-92
2022/05/30 00:44:54;;;;;;;6.53;5.75;;;5.30;99.90;;;;;;5001481;28;20022;-92
2022/05/30 00:47:21;;;;;;;9.52;6.25;;;5.30;99.90;;;;;;5017395;28;20045;-92
2022/05/30 00:49:48;;;;;;;6.80;6.20;;;5.20;99.90;;;;;;5003300;28;20537;-92
2022/05/30 00:52:32;;;;;;;6.45;5.95;;;5.20;99.90;;;;;;5009390;28;20053;-92
2022/05/30 00:55:05;;;;;;;5.47;5.00;;;5.20;99.90;;;;;;5008489;28;20037;-90
2022/05/30 00:57:32;;;;;;;6.85;6.15;;;5.10;99.90;;;;;;5013930;28;20029;-92
2022/05/30 01:00:04;;;;;;;7.45;5.88;;;5.10;99.90;;;;;;5008456;28;20113;-91
2022/05/30 01:02:33;;;;;;;6.80;6.20;;;5.10;99.90;;;;;;5020722;28;20068;-93
2022/05/30 01:07:45;;;;;;;37.67;7.50;;;5.10;99.90;;;;;;5024743;28;20044;-92
2022/05/30 01:10:14;;;;;;;212.05;9.35;;;5.10;99.90;;;;;;5028574;28;20047;-93
2022/05/30 01:12:43;;;;;;;274.85;9.85;;;5.10;99.90;;;;;;5009606;28;20120;-92
2022/05/30 01:15:14;;;;;;;283.83;10.13;;;5.00;99.90;;;;;;5020999;28;20026;-92
2022/05/30 01:18:15;;;;;;;240.45;10.93;;;4.80;99.90;;;;;;5011779;28;20072;-93
2022/05/30 01:21:01;;;;;;;165.63;7.35;;;4.70;99.90;;;;;;4996256;28;20041;-91
2022/05/30 01:23:44;;;;;;;301.27;11.73;;;4.60;99.90;;;;;;5031932;28;20053;-91
2022/05/30 01:26:31;;;;;;;161.05;7.88;;;4.50;99.90;;;;;;5007175;28;20444;-92
2022/05/30 01:29:27;;;;;;;171.55;8.45;;;4.40;99.90;;;;;;4998041;28;20050;-90
2022/05/30 01:31:54;;;;;;;218.18;10.02;;;4.40;99.90;;;;;;5008448;28;20497;-91
2022/05/30 01:34:22;;;;;;;217.75;9.25;;;4.30;99.90;;;;;;5018891;28;20037;-91
2022/05/30 01:36:48;;;;;;;163.40;9.65;;;4.30;99.90;;;;;;5016281;28;20034;-92
2022/05/30 01:39:13;;;;;;;42.53;5.78;;;4.30;99.90;;;;;;5000804;28;20033;-92
2022/05/30 01:41:39;;;;;;;127.88;7.95;;;4.20;99.90;;;;;;5013151;28;20549;-89
2022/05/30 01:44:05;;;;;;;284.05;13.85;;;4.20;99.90;;;;;;5009940;28;20025;-92
2022/05/30 01:46:31;;;;;;;203.73;11.27;;;4.20;99.90;;;;;;5006320;28;20060;-91
2022/05/30 01:48:57;;;;;;;334.85;14.43;;;4.20;99.90;;;;;;5009591;28;20064;-91
2022/05/30 01:51:23;;;;;;;441.17;18.08;;;4.20;99.90;;;;;;5030737;28;20304;-91
2022/05/30 01:53:50;;;;;;;303.88;14.85;;;4.10;99.90;;;;;;5008881;28;20821;-92
2022/05/30 01:56:16;;;;;;;96.13;7.03;;;4.20;99.90;;;;;;5028288;28;20552;-91
2022/05/30 01:58:42;;;;;;;22.10;5.32;;;4.10;99.90;;;;;;5023632;28;20018;-91
2022/05/30 02:01:16;;;;;;;5.03;4.60;;;4.10;99.90;;;;;;5001879;28;20021;-94
2022/05/30 02:03:43;;;;;;;17.75;5.25;;;4.10;99.90;;;;;;5014076;28;20071;-91
2022/05/30 02:06:09;;;;;;;20.75;5.78;;;4.10;99.90;;;;;;5006902;28;20037;-92
2022/05/30 02:08:34;;;;;;;116.28;8.10;;;4.00;99.90;;;;;;5026738;28;20030;-91
2022/05/30 02:11:00;;;;;;;63.38;6.30;;;4.00;99.90;;;;;;5006725;28;20030;-91
2022/05/30 02:13:26;;;;;;;24.83;5.25;;;4.10;99.90;;;;;;5014464;28;20112;-92
2022/05/30 02:18:35;;;;;;;27.77;4.47;;;4.00;99.90;;;;;;5016950;28;20048;-91
2022/05/30 02:21:01;;;;;;;6.30;5.80;;;4.00;99.90;;;;;;4998479;28;20034;-91
2022/05/30 02:23:27;;;;;;;4.80;4.13;;;4.00;99.90;;;;;;5021517;28;20792;-91
2022/05/30 02:25:52;;;;;;;4.90;4.50;;;3.90;99.90;;;;;;5003128;28;20056;-89
2022/05/30 02:28:18;;;;;;;9.32;5.97;;;3.90;99.90;;;;;;5025695;28;20022;-91
2022/05/30 02:30:44;;;;;;;7.50;6.80;;;3.90;99.90;;;;;;5016299;28;20041;-91
2022/05/30 02:38:39;;;;;;;7.53;6.60;;;4.00;99.90;;;;;;5024983;28;20084;-91
2022/05/30 02:41:04;;;;;;;43.75;4.25;;;4.00;99.90;;;;;;5019728;28;20113;-90
2022/05/30 02:43:30;;;;;;;177.63;9.15;;;3.90;99.90;;;;;;4996933;28;20109;-92
2022/05/30 02:45:56;;;;;;;4.95;2.33;;;3.80;99.90;;;;;;4996556;28;20429;-87
2022/05/30 02:48:21;;;;;;;3.67;3.38;;;3.70;99.90;;;;;;5020122;28;20057;-89
2022/05/30 02:50:47;;;;;;;3.42;3.13;;;3.60;99.90;;;;;;5006823;28;20057;-91
2022/05/30 02:53:13;;;;;;;5.85;5.10;;;3.50;99.90;;;;;;5020090;28;20394;-90
2022/05/30 02:55:39;;;;;;;23.50;5.90;;;3.50;99.90;;;;;;5015188;28;20022;-91
2022/05/30 02:58:04;;;;;;;133.05;8.93;;;3.50;99.90;;;;;;5016333;28;20409;-90
2022/05/30 03:00:30;;;;;;;279.27;12.27;;;3.50;99.90;;;;;;5008799;28;20030;-89
2022/05/30 03:02:56;;;;;;;146.52;7.80;;;3.50;99.90;;;;;;5016364;28;20034;-89
2022/05/30 03:05:22;;;;;;;4.80;3.13;;;3.50;99.90;;;;;;5007076;28;20690;-91
2022/05/30 03:07:48;;;;;;;2.75;2.55;;;3.50;99.90;;;;;;5013996;28;20060;-91
2022/05/30 03:10:14;;;;;;;2.60;2.40;;;3.50;99.90;;;;;;4998780;28;20053;-91
2022/05/30 03:12:39;;;;;;;8.40;4.18;;;3.40;99.90;;;;;;5006602;28;20026;-91
2022/05/30 03:15:05;;;;;;;3.25;2.38;;;3.40;99.90;;;;;;5012776;28;20040;-89
2022/05/30 03:17:31;;;;;;;3.13;2.50;;;3.30;99.90;;;;;;5019441;28;20086;-91
2022/05/30 03:19:56;;;;;;;2.45;2.05;;;3.30;99.90;;;;;;5011287;28;20026;-92
2022/05/30 03:22:22;;;;;;;48.65;3.60;;;3.20;99.90;;;;;;5027659;28;20044;-88
2022/05/30 03:24:48;;;;;;;183.98;7.95;;;3.20;99.90;;;;;;5012111;28;20090;-91
2022/05/30 03:27:13;;;;;;;103.72;5.70;;;3.10;99.90;;;;;;5030228;28;20087;-91
2022/05/30 03:29:39;;;;;;;218.00;9.02;;;3.10;99.90;;;;;;5012506;28;20037;-90
2022/05/30 03:32:05;;;;;;;107.28;5.53;;;3.10;99.90;;;;;;5010926;28;20033;-91
2022/05/30 03:34:31;;;;;;;162.82;7.43;;;3.10;99.90;;;;;;5031958;28;20025;-91
2022/05/30 03:36:56;;;;;;;145.65;7.25;;;3.10;99.90;;;;;;5001469;28;20029;-90
2022/05/30 03:39:22;;;;;;;133.45;7.47;;;3.20;99.90;;;;;;5028276;28;20045;-88
2022/05/30 03:41:48;;;;;;;111.60;6.82;;;3.30;99.90;;;;;;5008966;28;20092;-91
2022/05/30 03:44:13;;;;;;;198.27;10.52;;;3.40;99.90;;;;;;5005502;28;20054;-90
2022/05/30 03:46:39;;;;;;;166.10;10.38;;;3.50;99.90;;;;;;5031689;28;20021;-90
2022/05/30 03:49:04;;;;;;;273.58;13.13;;;3.60;99.90;;;;;;5002909;28;20036;-91
2022/05/30 03:51:30;;;;;;;198.35;9.27;;;3.70;99.90;;;;;;5019558;28;20033;-92
2022/05/30 03:53:56;;;;;;;310.67;13.15;;;3.80;99.90;;;;;;5011903;28;20033;-88
2022/05/30 03:56:22;;;;;;;145.00;7.07;;;4.00;99.90;;;;;;5008085;28;20033;-88
2022/05/30 03:58:48;;;;;;;114.88;6.25;;;4.10;99.90;;;;;;5021473;28;20087;-90
2022/05/30 04:01:14;;;;;;;119.30;7.70;;;4.10;99.90;;;;;;5025160;28;20109;-90
2022/05/30 04:03:40;;;;;;;120.18;7.18;;;4.10;99.90;;;;;;5002145;28;20049;-90
2022/05/30 04:06:07;;;;;;;90.13;5.03;;;4.00;99.90;;;;;;5015579;28;20033;-90
2022/05/30 04:08:33;;;;;;;66.90;5.88;;;4.00;99.90;;;;;;5009749;28;20041;-90
2022/05/30 04:10:59;;;;;;;142.40;7.53;;;4.00;99.90;;;;;;4998773;28;20033;-89
2022/05/30 04:13:25;;;;;;;103.78;6.63;;;4.10;99.90;;;;;;5014351;28;20470;-90
2022/05/30 04:15:51;;;;;;;118.13;5.50;;;4.20;99.90;;;;;;5004746;28;20017;-88
2022/05/30 04:18:17;;;;;;;110.97;5.57;;;4.40;99.90;;;;;;5023247;28;20611;-90
2022/05/30 04:20:46;;;;;;;99.35;5.40;;;4.50;99.90;;;;;;5004561;28;20057;-90
2022/05/30 04:23:12;;;;;;;205.63;7.65;;;4.60;99.90;;;;;;5012667;28;20026;-91
2022/05/30 04:25:38;;;;;;;171.10;7.28;;;4.60;99.90;;;;;;5023288;28;20022;-91
2022/05/30 04:28:04;;;;;;;182.63;8.05;;;4.70;99.90;;;;;;5010759;28;20026;-91
2022/05/30 04:30:29;;;;;;;290.50;11.02;;;4.70;99.90;;;;;;5003104;28;20054;-91
2022/05/30 04:32:55;;;;;;;330.70;11.35;;;4.80;99.90;;;;;;5021012;28;20117;-91
2022/05/30 04:35:21;;;;;;;307.77;11.27;;;4.90;99.90;;;;;;5024592;28;20057;-92
2022/05/30 04:37:47;;;;;;;215.80;8.65;;;5.10;99.90;;;;;;5013630;28;20037;-91
2022/05/30 04:40:17;;;;;;;295.30;11.15;;;5.20;99.90;;;;;;5031824;28;20031;-92
2022/05/30 04:42:44;;;;;;;279.63;9.82;;;5.40;99.90;;;;;;5004764;28;20392;-90
2022/05/30 04:45:10;;;;;;;230.75;7.93;;;5.50;99.90;;;;;;5026681;28;20040;-91
2022/05/30 04:47:39;;;;;;;308.80;10.80;;;5.70;99.90;;;;;;5027337;28;20064;-91
2022/05/30 04:50:06;;;;;;;171.52;6.82;;;5.80;99.90;;;;;;5019205;28;20124;-91
2022/05/30 04:52:32;;;;;;;315.55;13.00;;;5.80;99.90;;;;;;5005502;28;20121;-92
2022/05/30 04:54:58;;;;;;;164.30;6.30;;;5.80;99.90;;;;;;5001043;28;20104;-91
2022/05/30 04:57:23;;;;;;;266.98;9.07;;;5.80;99.90;;;;;;5016776;28;20030;-91
2022/05/30 04:59:49;;;;;;;250.35;9.05;;;6.00;99.90;;;;;;5018830;28;20065;-91
2022/05/30 05:02:18;;;;;;;215.13;8.50;;;6.10;99.90;;;;;;5002296;28;20037;-92
2022/05/30 05:04:44;;;;;;;172.48;6.25;;;6.20;99.90;;;;;;5002804;28;20030;-92
2022/05/30 05:07:10;;;;;;;118.68;5.13;;;6.10;99.90;;;;;;5012508;28;20033;-91
2022/05/30 05:09:40;;;;;;;146.68;6.45;;;6.10;99.90;;;;;;5016632;28;20037;-95
2022/05/30 05:12:06;;;;;;;157.68;6.82;;;6.20;99.90;;;;;;4998856;28;20034;-92
2022/05/30 05:14:31;;;;;;;96.82;4.60;;;6.40;99.90;;;;;;5027471;28;20524;-92
2022/05/30 05:16:57;;;;;;;167.20;6.55;;;6.50;99.90;;;;;;5017423;28;20038;-90
2022/05/30 05:19:23;;;;;;;289.00;10.38;;;6.60;99.90;;;;;;5022133;28;20033;-92
2022/05/30 05:21:50;;;;;;;132.45;5.93;;;6.80;99.90;;;;;;5008393;28;20080;-93
2022/05/30 05:24:16;;;;;;;135.65;5.47;;;7.00;99.90;;;;;;5008362;28;20030;-92
2022/05/30 05:26:44;;;;;;;117.97;5.22;;;7.20;99.90;;;;;;5019377;28;20096;-92
2022/05/30 05:29:10;;;;;;;117.68;6.47;;;7.40;99.90;;;;;;5016396;28;20030;-92
2022/05/30 05:31:36;;;;;;;183.88;7.75;;;7.50;99.90;;;;;;5023081;28;20025;-92
2022/05/30 05:34:04;;;;;;;339.48;13.70;;;7.50;99.90;;;;;;5024244;28;20018;-91
2022/05/30 05:36:35;;;;;;;41.65;4.03;;;7.50;99.90;;;;;;5005092;28;20033;-92
2022/05/30 05:39:01;;;;;;;238.90;9.35;;;7.50;99.90;;;;;;5020207;28;20026;-92
2022/05/30 05:41:27;;;;;;;106.80;5.80;;;7.70;99.90;;;;;;5001827;28;20033;-92
2022/05/30 05:43:54;;;;;;;64.05;4.10;;;7.70;99.90;;;;;;5005304;28;20025;-91
2022/05/30 05:46:22;;;;;;;162.13;8.00;;;7.80;99.90;;;;;;5032309;28;20829;-92
2022/05/30 05:48:48;;;;;;;125.05;6.32;;;8.00;99.90;;;;;;5007874;28;20068;-91
2022/05/30 05:51:14;;;;;;;216.43;9.25;;;8.10;99.90;;;;;;5021795;28;20060;-90
2022/05/30 05:53:43;;;;;;;125.72;6.20;;;7.90;99.90;;;;;;5024340;28;20458;-91
2022/05/30 05:56:13;;;;;;;172.32;8.25;;;7.80;99.90;;;;;;5008925;28;20037;-93
2022/05/30 05:58:39;;;;;;;177.70;8.00;;;7.90;99.90;;;;;;5005585;28;20022;-91
2022/05/30 06:01:13;;;;;;;217.95;9.05;;;8.10;99.90;;;;;;5000827;28;20026;-91
2022/05/30 06:03:38;;;;;;;119.97;6.28;;;8.30;99.90;;;;;;5016008;28;20501;-92
2022/05/30 06:06:05;;;;;;;20.40;3.70;;;8.40;99.90;;;;;;5006928;28;20037;-91
2022/05/30 06:08:32;;;;;;;43.55;4.60;;;8.60;99.90;;;;;;5014432;28;20026;-92
2022/05/30 06:11:11;;;;;;;36.25;4.22;;;9.10;99.90;;;;;;5025022;28;20084;-90
2022/05/30 06:13:39;;;;;;;56.35;4.28;;;9.50;99.90;;;;;;5022013;28;20098;-92
2022/05/30 06:16:07;;;;;;;9.95;2.72;;;10.10;99.90;;;;;;5029995;28;20087;-92
2022/05/30 06:18:33;;;;;;;3.70;2.38;;;11.10;99.90;;;;;;5010028;28;20029;-91
2022/05/30 06:21:00;;;;;;;5.13;2.35;;;12.10;99.90;;;;;;5012529;28;20034;-92
2022/05/30 06:23:25;;;;;;;3.38;2.35;;;13.00;99.90;;;;;;5010719;28;20036;-93
2022/05/30 06:25:51;;;;;;;2.20;2.00;;;13.80;99.90;;;;;;5024049;28;20022;-91
2022/05/30 06:28:17;;;;;;;5.93;2.53;;;14.50;99.90;;;;;;5017958;28;20010;-93
2022/05/30 06:30:42;;;;;;;2.97;2.20;;;15.30;99.90;;;;;;5019876;28;20034;-93
2022/05/30 06:33:08;;;;;;;1.90;1.73;;;16.00;99.90;;;;;;5027597;28;20034;-94
2022/05/30 06:35:33;;;;;;;2.08;1.88;;;16.80;99.90;;;;;;5027886;28;20612;-92
2022/05/30 06:37:59;;;;;;;3.28;1.80;;;17.50;99.90;;;;;;5020140;28;20037;-92
2022/05/30 06:40:25;;;;;;;1.95;1.85;;;18.00;99.90;;;;;;5014752;28;20030;-92
2022/05/30 06:42:51;;;;;;;1.98;1.50;;;19.10;99.90;;;;;;5020897;28;20033;-90
2022/05/30 06:45:16;;;;;;;1.70;1.60;;;20.20;92.80;;;;;;5003491;28;20482;-93
2022/05/30 06:47:42;;;;;;;1.92;1.75;;;21.60;68.40;;;;;;5026313;28;20037;-92
2022/05/30 06:50:08;;;;;;;2.80;1.73;;;22.50;64.60;;;;;;5007025;28;20041;-93
2022/05/30 06:52:36;;;;;;;1.70;1.60;;;23.00;61.30;;;;;;5030250;28;20109;-93
2022/05/30 06:55:02;;;;;;;1.50;1.40;;;23.30;57.20;;;;;;5028401;28;20029;-94
2022/05/30 06:58:28;;;;;;;1.63;1.40;;;23.70;56.80;;;;;;5012938;28;20037;-95
2022/05/30 07:00:22;;;;;;;2.70;1.60;;;24.10;56.80;;;;;;4999944;28;20030;-91
2022/05/30 07:02:48;;;;;;;1.20;1.10;;;24.50;57.00;;;;;;5011673;28;20026;-94
2022/05/30 07:05:14;;;;;;;2.60;1.40;;;24.60;55.50;;;;;;5009696;28;20022;-93
2022/05/30 07:07:41;;;;;;;1.52;1.30;;;24.90;54.80;;;;;;5012080;28;20072;-93
2022/05/30 07:10:08;;;;;;;1.88;1.50;;;25.50;53.50;;;;;;5023670;28;20021;-93
2022/05/30 07:12:34;;;;;;;1.50;1.15;;;25.90;52.10;;;;;;5029564;28;20034;-92
2022/05/30 07:15:00;;;;;;;1.30;1.20;;;25.90;51.60;;;;;;5002016;28;20030;-92
2022/05/30 07:17:26;;;;;;;1.23;1.13;;;26.00;52.60;;;;;;5012642;28;20124;-93
2022/05/30 07:19:52;;;;;;;2.22;1.08;;;26.50;52.00;;;;;;5019833;28;20409;-94
2022/05/30 07:22:18;;;;;;;1.20;1.00;;;26.50;48.20;;;;;;5018867;28;20030;-92
2022/05/30 07:24:44;;;;;;;1.20;0.93;;;25.90;49.70;;;;;;5008700;28;20045;-94
2022/05/30 07:27:10;;;;;;;1.20;1.10;;;25.90;48.40;;;;;;5016087;28;20025;-93
2022/05/30 07:29:36;;;;;;;4.88;1.17;;;25.90;48.80;;;;;;5027922;28;20033;-93
2022/05/30 07:32:03;;;;;;;2.92;1.25;;;26.60;51.10;;;;;;5005639;28;20041;-93
2022/05/30 07:34:30;;;;;;;1.83;1.10;;;27.30;47.00;;;;;;5029194;28;20477;-93
2022/05/30 07:36:58;;;;;;;1.55;1.02;;;27.40;46.10;;;;;;5032933;28;20056;-92
2022/05/30 07:39:24;;;;;;;2.45;1.10;;;27.00;45.40;;;;;;5028723;28;20065;-92
2022/05/30 07:41:49;;;;;;;1.83;1.20;;;27.50;46.20;;;;;;5019178;28;20041;-93
2022/05/30 07:44:15;;;;;;;1.42;1.10;;;28.00;46.20;;;;;;5008401;28;20018;-93
2022/05/30 07:46:43;;;;;;;2.15;1.05;;;28.60;45.60;;;;;;4997229;28;20053;-93
2022/05/30 07:49:10;;;;;;;1.65;1.13;;;28.70;45.00;;;;;;5029309;28;20025;-94
2022/05/30 07:51:36;;;;;;;3.08;1.20;;;28.60;44.20;;;;;;5004566;28;20397;-94
2022/05/30 07:54:01;;;;;;;1.10;0.93;;;29.00;44.80;;;;;;4998962;28;20038;-93
2022/05/30 07:56:27;;;;;;;1.83;1.10;;;29.10;44.00;;;;;;5023581;28;20033;-95
2022/05/30 07:58:53;;;;;;;2.85;1.20;;;28.90;43.80;;;;;;5014394;28;20022;-94
2022/05/30 08:01:21;;;;;;;3.60;1.00;;;28.10;43.00;;;;;;5026790;28;20028;-94
2022/05/30 08:03:47;;;;;;;1.80;0.98;;;28.70;43.50;;;;;;5016076;28;20030;-94
2022/05/30 08:06:17;;;;;;;1.25;1.10;;;29.20;42.70;;;;;;5006729;28;20077;-95
2022/05/30 08:08:43;;;;;;;1.88;1.00;;;29.00;43.00;;;;;;5025500;28;20033;-94
2022/05/30 08:11:10;;;;;;;1.40;1.25;;;29.40;41.40;;;;;;5024318;28;20106;-93
2022/05/30 08:13:35;;;;;;;1.40;1.00;;;29.40;40.80;;;;;;4996729;28;20022;-95
2022/05/30 08:16:02;;;;;;;1.25;1.02;;;29.70;41.00;;;;;;4997140;28;20512;-94
2022/05/30 08:18:29;;;;;;;2.58;1.40;;;29.60;40.40;;;;;;5035831;28;20032;-96
2022/05/30 08:20:54;;;;;;;2.42;1.10;;;29.30;42.90;;;;;;5025247;28;20041;-93
2022/05/30 08:23:20;;;;;;;2.30;1.20;;;29.60;39.90;;;;;;5018608;28;20029;-92
2022/05/30 08:25:47;;;;;;;1.48;0.90;;;29.70;41.90;;;;;;5013222;28;20045;-92
2022/05/30 08:28:14;;;;;;;2.55;1.25;;;29.60;40.30;;;;;;5038924;28;20018;-92
2022/05/30 08:30:40;;;;;;;2.17;1.08;;;29.60;40.90;;;;;;5025721;28;20041;-91
2022/05/30 08:33:15;;;;;;;1.67;1.00;;;29.40;42.40;;;;;;5006861;28;20371;-93
2022/05/30 08:35:41;;;;;;;2.75;1.00;;;28.80;44.00;;;;;;5010333;28;20059;-91
2022/05/30 08:38:07;;;;;;;2.05;0.90;;;27.80;46.20;;;;;;5024819;28;20040;-91
2022/05/30 08:43:37;;;;;;;2.03;1.00;;;26.20;47.40;;;;;;5018224;28;20029;-91
2022/05/30 08:46:30;;;;;;;2.03;1.05;;;25.50;47.10;;;;;;5009629;28;20049;-91
2022/05/30 08:49:13;;;;;;;2.60;0.98;;;25.20;46.40;;;;;;5027883;28;20038;-89
2022/05/30 08:52:10;;;;;;;1.77;1.10;;;24.40;46.90;;;;;;5017213;28;20041;-91
2022/05/30 08:55:06;;;;;;;1.35;1.15;;;23.60;50.50;;;;;;5041541;28;20034;-92
2022/05/30 08:58:06;;;;;;;2.60;1.00;;;23.30;53.90;;;;;;5039117;28;20029;-92
2022/05/30 09:01:00;;;;;;;2.03;0.80;;;24.30;50.90;;;;;;5039866;28;20053;-94
2022/05/30 09:03:43;;;;;;;0.60;0.60;;;25.00;47.70;;;;;;5000318;28;20037;-93
2022/05/30 09:06:22;;;;;;;1.80;0.75;;;24.90;43.60;;;;;;5023379;28;20090;-96
2022/05/30 09:09:00;;;;;;;1.50;0.77;;;24.70;45.10;;;;;;5039293;28;20405;-93
2022/05/30 09:11:49;;;;;;;1.52;0.73;;;24.30;49.50;;;;;;5023104;28;20034;-93
2022/05/30 09:14:34;;;;;;;1.38;0.80;;;24.30;49.20;;;;;;5010876;28;20101;-94
2022/05/30 09:17:04;;;;;;;2.10;0.50;;;24.60;46.60;;;;;;5024211;28;20034;-94
2022/05/30 09:19:30;;;;;;;2.53;0.60;;;24.10;43.80;;;;;;5005811;28;20057;-95
2022/05/30 09:22:01;;;;;;;1.20;0.60;;;23.60;44.20;;;;;;5028747;28;20072;-94
2022/05/30 09:24:29;;;;;;;1.23;0.68;;;23.00;47.00;;;;;;5020902;28;20386;-93
2022/05/30 09:26:57;;;;;;;0.80;0.45;;;22.40;46.00;;;;;;5037120;28;20026;-94
2022/05/30 09:29:31;;;;;;;1.17;0.55;;;22.10;50.20;;;;;;5020403;28;20437;-94
2022/05/30 09:32:52;;;;;;;1.48;0.50;;;22.20;45.70;;;;;;5031298;28;20026;-93
2022/05/30 09:35:30;;;;;;;1.48;0.50;;;22.10;47.30;;;;;;4915028;29;20115;-93
2022/05/30 09:38:04;;;;;;;1.10;0.60;;;23.40;46.90;;;;;;4922258;29;20038;-91
2022/05/30 09:40:52;;;;;;;1.17;0.70;;;25.10;47.70;;;;;;4985266;28;20038;-94
2022/05/30 09:43:27;;;;;;;1.80;0.55;;;25.70;44.30;;;;;;5017941;28;20381;-95
2022/05/30 09:45:54;;;;;;;0.47;0.47;;;26.20;44.40;;;;;;5021764;28;20120;-94
2022/05/30 09:48:21;;;;;;;0.50;0.50;;;26.10;43.30;;;;;;5032372;28;20030;-94
2022/05/30 09:50:51;;;;;;;0.57;0.43;;;25.50;43.70;;;;;;5009774;28;20100;-92
2022/05/30 09:53:39;;;;;;;0.52;0.52;;;24.60;45.40;;;;;;5006044;28;20030;-94
2022/05/30 09:56:05;;;;;;;2.90;0.68;;;23.80;45.70;;;;;;5024017;28;20040;-92
2022/05/30 09:58:43;;;;;;;1.70;0.77;;;23.30;46.30;;;;;;5016255;28;20604;-94
2022/05/30 10:01:09;;;;;;;0.80;0.50;;;22.50;48.30;;;;;;5029794;28;20025;-94
2022/05/30 10:03:38;;;;;;;2.30;0.65;;;22.20;50.40;;;;;;5032592;28;20085;-94
2022/05/30 10:06:30;;;;;;;0.80;0.43;;;22.80;49.70;;;;;;5019016;28;20101;-94
2022/05/30 10:09:33;;;;;;;0.80;0.50;;;23.70;47.00;;;;;;5032073;28;20014;-94
2022/05/30 10:11:59;;;;;;;2.28;0.60;;;24.00;43.60;;;;;;4926179;29;20036;-94
2022/05/30 10:14:29;;;;;;;0.73;0.52;;;24.10;45.70;;;;;;5010720;28;20026;-95
2022/05/30 10:16:58;;;;;;;0.90;0.55;;;24.50;45.80;;;;;;5033022;28;20063;-92
2022/05/30 10:19:28;;;;;;;0.50;0.50;;;25.30;42.60;;;;;;5024702;28;20437;-94
2022/05/30 10:28:16;;;;;;;0.50;0.50;;;25.90;41.50;;;;;;4999763;28;20041;-93
2022/05/30 10:31:00;;;;;;;1.65;0.80;;;25.70;43.40;;;;;;5029239;28;20034;-92
2022/05/30 10:33:54;;;;;;;1.40;0.82;;;25.40;44.70;;;;;;5019001;28;20473;-92
2022/05/30 10:36:35;;;;;;;1.33;0.70;;;25.00;46.10;;;;;;5007885;28;20073;-91
2022/05/30 10:39:20;;;;;;;1.27;0.85;;;24.50;46.60;;;;;;5025600;28;20137;-92
2022/05/30 10:42:04;;;;;;;1.55;0.60;;;24.10;49.00;;;;;;4997401;28;20104;-90
2022/05/30 10:44:38;;;;;;;1.20;0.70;;;23.70;48.80;;;;;;5000065;28;20040;-90
2022/05/30 10:47:08;;;;;;;1.90;0.70;;;23.30;49.10;;;;;;5025262;28;20029;-92
2022/05/30 10:49:41;;;;;;;0.50;0.50;;;23.10;51.10;;;;;;5019002;28;20027;-93
2022/05/30 10:52:20;;;;;;;0.60;0.60;;;22.80;50.30;;;;;;5015652;28;20021;-93
2022/05/30 10:54:55;;;;;;;2.60;0.77;;;22.80;49.30;;;;;;5005450;28;20037;-93
2022/05/30 10:57:42;;;;;;;0.60;0.60;;;23.10;49.40;;;;;;5026596;28;20045;-92
2022/05/30 11:00:14;;;;;;;0.60;0.60;;;23.80;49.10;;;;;;5003681;28;20041;-94
2022/05/30 11:03:17;;;;;;;0.80;0.50;;;24.40;44.50;;;;;;5019728;28;20076;-92
2022/05/30 11:06:03;;;;;;;0.75;0.50;;;24.90;43.00;;;;;;5023981;28;20595;-91
2022/05/30 11:09:05;;;;;;;0.63;0.60;;;24.90;42.20;;;;;;5024614;28;20053;-92
2022/05/30 11:12:09;;;;;;;1.08;0.57;;;24.60;42.00;;;;;;4996011;28;20034;-92
2022/05/30 11:14:40;;;;;;;1.10;0.60;;;24.60;40.60;;;;;;5014198;28;20034;-92
2022/05/30 11:17:32;;;;;;;2.15;0.57;;;24.20;43.40;;;;;;5023244;28;20171;-92
2022/05/30 11:20:05;;;;;;;0.60;0.60;;;24.90;45.30;;;;;;5019838;28;20124;-92
2022/05/30 11:22:36;;;;;;;0.70;0.60;;;25.30;42.90;;;;;;5017777;28;20842;-92
2022/05/30 11:25:04;;;;;;;0.60;0.60;;;25.50;47.20;;;;;;5032837;28;20068;-91
2022/05/30 11:27:40;;;;;;;0.80;0.63;;;25.70;45.90;;;;;;5008903;28;20408;-91
2022/05/30 11:30:27;;;;;;;0.82;0.50;;;25.80;43.80;;;;;;5017139;28;20432;-90
2022/05/30 11:33:17;;;;;;;0.98;0.70;;;25.50;44.30;;;;;;5029911;28;20030;-91
2022/05/30 11:36:07;;;;;;;2.35;0.50;;;25.70;43.40;;;;;;5023778;28;20026;-89
2022/05/30 11:38:57;;;;;;;4.45;0.65;;;25.60;43.50;;;;;;5014710;28;20034;-92
2022/05/30 11:41:40;;;;;;;2.58;0.60;;;25.10;43.60;;;;;;5022787;28;20026;-88
2022/05/30 11:44:22;;;;;;;1.80;0.70;;;24.40;44.90;;;;;;5003505;28;20026;-91
2022/05/30 11:47:18;;;;;;;2.53;1.10;;;23.60;46.10;;;;;;5030715;28;20603;-91
2022/05/30 11:50:16;;;;;;;0.90;0.57;;;22.90;47.80;;;;;;5021841;28;20067;-92
2022/05/30 11:53:11;;;;;;;1.73;0.57;;;21.90;49.50;;;;;;5005407;28;20017;-93
2022/05/30 11:55:47;;;;;;;1.27;0.50;;;21.60;50.90;;;;;;5019683;28;20547;-92
2022/05/30 11:58:38;;;;;;;0.68;0.68;;;21.20;51.80;;;;;;5019387;28;20053;-90
2022/05/30 12:01:07;;;;;;;0.70;0.70;;;21.10;52.20;;;;;;5020025;28;20042;-93
2022/05/30 12:03:45;;;;;;;2.55;0.70;;;21.10;53.50;;;;;;5012733;28;20152;-93
2022/05/30 12:06:55;;;;;;;1.42;0.60;;;21.20;52.90;;;;;;5016318;28;20037;-93
2022/05/30 12:09:36;;;;;;;2.05;0.80;;;21.50;50.70;;;;;;4918395;29;20024;-93
2022/05/30 12:12:08;;;;;;;0.60;0.60;;;21.80;52.20;;;;;;4927746;29;20098;-94
2022/05/30 12:14:48;;;;;;;1.23;0.47;;;22.10;52.40;;;;;;4976419;28;20053;-93
2022/05/30 12:23:47;;;;;;;1.30;0.70;;;22.80;52.50;;;;;;5008853;28;20041;-93
2022/05/30 12:24:05;;;;;;;0.90;0.60;;;23.60;46.30;;;;;;5023828;28;20090;-91
2022/05/30 12:26:48;;;;;;;0.63;0.50;;;23.30;45.10;;;;;;5021049;28;20110;-93
2022/05/30 12:29:43;;;;;;;1.20;0.70;;;22.40;44.10;;;;;;4995585;28;20045;-92
2022/05/30 12:32:09;;;;;;;1.13;0.60;;;22.10;50.60;;;;;;5021555;28;20026;-93
2022/05/30 12:35:33;;;;;;;1.60;0.85;;;21.90;51.40;;;;;;5013943;28;20021;-92
2022/05/30 12:38:07;;;;;;;1.70;0.70;;;21.70;51.40;;;;;;5013056;28;20038;-91
2022/05/30 12:40:41;;;;;;;0.82;0.50;;;21.90;54.80;;;;;;5009774;28;20029;-92
2022/05/30 12:43:27;;;;;;;1.30;0.70;;;22.10;54.10;;;;;;5028286;28;20041;-92
2022/05/30 12:45:55;;;;;;;4.25;0.80;;;22.20;50.90;;;;;;5026850;28;20041;-93
2022/05/30 12:48:40;;;;;;;0.80;0.50;;;22.90;50.80;;;;;;4999262;28;20033;-93
2022/05/30 12:51:33;;;;;;;1.33;0.60;;;23.40;50.30;;;;;;5005796;28;20029;-93
2022/05/30 12:53:59;;;;;;;0.77;0.50;;;23.50;47.50;;;;;;5024672;28;20489;-94
2022/05/30 12:56:37;;;;;;;0.68;0.68;;;23.30;48.20;;;;;;5011546;28;20033;-93
2022/05/30 12:59:03;;;;;;;0.95;0.50;;;22.60;49.80;;;;;;5011605;28;20509;-92
2022/05/30 13:01:44;;;;;;;0.93;0.50;;;22.20;50.30;;;;;;5017320;28;20036;-93
2022/05/30 13:04:21;;;;;;;0.70;0.50;;;21.80;52.30;;;;;;5002514;28;20021;-93
2022/05/30 13:06:56;;;;;;;2.53;0.63;;;21.60;51.90;;;;;;5003975;28;20532;-93
2022/05/30 13:09:30;;;;;;;0.60;0.60;;;22.00;50.70;;;;;;5001081;28;20038;-94
2022/05/30 13:12:10;;;;;;;1.25;0.50;;;22.30;50.30;;;;;;5025681;28;20037;-93
2022/05/30 13:15:01;;;;;;;0.70;0.60;;;22.20;52.10;;;;;;5027479;28;20120;-93
2022/05/30 13:17:51;;;;;;;1.33;0.40;;;22.00;52.10;;;;;;5024334;28;20037;-92
2022/05/30 13:20:32;;;;;;;1.15;0.45;;;21.90;54.00;;;;;;5014964;28;20038;-92
2022/05/30 13:23:03;;;;;;;1.58;0.40;;;21.80;51.10;;;;;;5020661;28;20026;-92
2022/05/30 13:25:33;;;;;;;;;;;22.00;51.20;;;;;;5013685;28;20477;-91
2022/05/30 13:28:13;;;;;;;3.58;0.50;;;22.00;49.50;;;;;;5023982;28;19905;-92
2022/05/30 13:30:39;;;;;;;1.45;0.50;;;22.00;49.60;;;;;;5002457;28;20567;-93
2022/05/30 13:33:20;;;;;;;0.80;0.68;;;22.40;50.40;;;;;;5005581;28;20501;-91